createdAt,value
2023-04-30T00:02:07.175Z,10.26
2023-04-30T00:04:24.905Z,10.23
2023-04-30T00:06:43.332Z,10.24
2023-04-30T00:09:01.049Z,10.23
2023-04-30T00:11:22.222Z,10.23
2023-04-30T00:13:39.512Z,10.22
2023-04-30T00:15:56.661Z,10.21
2023-04-30T00:18:13.922Z,10.19
2023-04-30T00:20:31.893Z,10.16
2023-04-30T00:22:50.173Z,10.15
2023-04-30T00:25:07.914Z,10.14
2023-04-30T00:27:26.340Z,10.15
2023-04-30T00:29:43.577Z,10.15
2023-04-30T00:32:01.252Z,10.14
2023-04-30T00:34:20.140Z,10.14
2023-04-30T00:36:37.473Z,10.13
2023-04-30T00:38:54.817Z,10.12
2023-04-30T00:41:11.749Z,10.11
2023-04-30T00:43:28.795Z,10.10
2023-04-30T00:45:46.212Z,10.07
2023-04-30T00:48:04.538Z,10.07
2023-04-30T00:50:21.855Z,10.07
2023-04-30T00:52:38.774Z,10.07
2023-04-30T00:54:57.149Z,10.07
2023-04-30T00:57:13.986Z,10.06
2023-04-30T00:59:31.280Z,10.04
2023-04-30T01:01:48.716Z,10.03
2023-04-30T01:04:06.692Z,10.01
2023-04-30T01:06:24.226Z,10.01
2023-04-30T01:08:43.010Z,10.02
2023-04-30T01:11:00.219Z,10.01
2023-04-30T01:13:17.563Z,10.02
2023-04-30T01:15:34.575Z,10.02
2023-04-30T01:17:51.973Z,10.00
2023-04-30T01:20:09.951Z,9.99
2023-04-30T01:22:27.269Z,9.99
2023-04-30T01:24:44.573Z,10.00
2023-04-30T01:27:01.846Z,10.00
2023-04-30T01:29:20.191Z,10.00
2023-04-30T01:31:37.148Z,10.00
2023-04-30T01:33:55.377Z,9.97
2023-04-30T01:36:12.298Z,9.97
2023-04-30T01:38:29.443Z,9.97
2023-04-30T01:40:46.777Z,9.96
2023-04-30T01:43:04.511Z,9.93
2023-04-30T01:45:22.122Z,9.94
2023-04-30T01:47:40.108Z,9.93
2023-04-30T01:49:57.514Z,9.94
2023-04-30T01:52:16.043Z,9.93
2023-04-30T01:54:33.569Z,9.95
2023-04-30T01:56:50.829Z,9.95
2023-04-30T01:59:08.198Z,9.93
2023-04-30T02:01:28.139Z,9.93
2023-04-30T02:03:45.075Z,9.93
2023-04-30T02:06:02.747Z,9.93
2023-04-30T02:08:20.454Z,9.93
2023-04-30T02:10:37.477Z,9.93
2023-04-30T02:12:55.127Z,9.92
2023-04-30T02:15:12.852Z,9.91
2023-04-30T02:17:33.600Z,9.86
2023-04-30T02:19:53.899Z,9.87
2023-04-30T02:22:11.024Z,9.85
2023-04-30T02:24:28.397Z,9.83
2023-04-30T02:26:48.633Z,9.85
2023-04-30T02:29:06.051Z,9.86
2023-04-30T02:31:23.385Z,9.86
2023-04-30T02:33:41.035Z,9.85
2023-04-30T02:35:59.741Z,9.83
2023-04-30T02:38:18.047Z,9.83
2023-04-30T02:43:10.083Z,9.79
2023-04-30T02:45:27.382Z,9.79
2023-04-30T02:47:44.303Z,9.78
2023-04-30T02:50:01.631Z,9.78
2023-04-30T02:52:19.011Z,9.77
2023-04-30T02:54:35.989Z,9.78
2023-04-30T02:56:52.919Z,9.78
2023-04-30T02:59:10.161Z,9.78
2023-04-30T03:01:27.569Z,9.75
2023-04-30T03:03:44.601Z,9.74
2023-04-30T03:06:02.984Z,9.74
2023-04-30T03:08:20.370Z,9.74
2023-04-30T03:10:37.828Z,9.74
2023-04-30T03:12:55.713Z,9.76
2023-04-30T03:15:12.948Z,9.77
2023-04-30T03:17:30.187Z,9.74
2023-04-30T03:19:47.600Z,9.73
2023-04-30T03:22:04.976Z,9.73
2023-04-30T03:24:22.269Z,9.72
2023-04-30T03:26:39.606Z,9.75
2023-04-30T03:28:56.961Z,9.72
2023-04-30T03:31:14.268Z,9.75
2023-04-30T03:33:32.163Z,9.76
2023-04-30T03:35:49.609Z,9.75
2023-04-30T03:38:06.955Z,9.74
2023-04-30T03:40:24.250Z,9.73
2023-04-30T03:42:41.616Z,9.73
2023-04-30T03:44:58.813Z,9.72
2023-04-30T03:47:15.877Z,9.73
2023-04-30T03:49:33.503Z,9.75
2023-04-30T03:51:51.468Z,9.73
2023-04-30T03:54:09.715Z,9.70
2023-04-30T03:56:27.064Z,9.70
2023-04-30T03:58:44.355Z,9.67
2023-04-30T04:01:01.324Z,9.65
2023-04-30T04:03:19.090Z,9.64
2023-04-30T04:05:36.441Z,9.65
2023-04-30T04:07:53.676Z,9.65
2023-04-30T04:10:10.984Z,9.62
2023-04-30T04:12:28.669Z,9.63
2023-04-30T04:14:45.986Z,9.61
2023-04-30T04:17:04.060Z,9.62
2023-04-30T04:19:21.506Z,9.61
2023-04-30T04:21:39.195Z,9.63
2023-04-30T04:23:56.263Z,9.64
2023-04-30T04:26:14.572Z,9.64
2023-04-30T04:28:32.429Z,9.65
2023-04-30T04:30:49.799Z,9.64
2023-04-30T04:33:07.200Z,9.64
2023-04-30T04:35:24.490Z,9.67
2023-04-30T04:37:41.758Z,9.64
2023-04-30T04:40:00.039Z,9.63
2023-04-30T04:42:25.239Z,9.65
2023-04-30T04:44:42.575Z,9.67
2023-04-30T04:46:59.893Z,9.67
2023-04-30T04:49:17.418Z,9.67
2023-04-30T04:51:34.374Z,9.67
2023-04-30T04:53:51.614Z,9.65
2023-04-30T04:56:09.006Z,9.65
2023-04-30T04:58:25.942Z,9.67
2023-04-30T05:00:44.326Z,9.67
2023-04-30T05:03:02.050Z,9.71
2023-04-30T05:05:19.507Z,9.73
2023-04-30T05:07:36.839Z,9.77
2023-04-30T05:09:53.977Z,9.80
2023-04-30T05:12:11.489Z,9.80
2023-04-30T05:14:28.832Z,9.84
2023-04-30T05:16:47.207Z,9.86
2023-04-30T05:19:04.558Z,9.89
2023-04-30T05:21:24.140Z,9.94
2023-04-30T05:23:42.422Z,9.96
2023-04-30T05:25:59.762Z,10.00
2023-04-30T05:28:18.095Z,10.03
2023-04-30T05:30:37.810Z,10.07
2023-04-30T05:32:57.612Z,10.12
2023-04-30T05:35:15.898Z,10.16
2023-04-30T05:37:33.119Z,10.18
2023-04-30T05:39:51.339Z,10.21
2023-04-30T05:42:08.656Z,10.25
2023-04-30T05:44:25.965Z,10.30
2023-04-30T05:46:43.195Z,10.32
2023-04-30T05:49:01.530Z,10.40
2023-04-30T05:51:20.765Z,10.45
2023-04-30T05:53:38.997Z,10.49
2023-04-30T05:55:56.282Z,10.56
2023-04-30T05:58:13.728Z,10.66
2023-04-30T06:00:31.077Z,10.70
2023-04-30T06:02:48.961Z,10.77
2023-04-30T06:05:07.353Z,10.83
2023-04-30T06:07:24.757Z,10.90
2023-04-30T06:09:42.130Z,10.97
2023-04-30T06:11:59.552Z,11.06
2023-04-30T06:14:17.412Z,11.18
2023-04-30T06:16:34.947Z,11.28
2023-04-30T06:18:53.655Z,11.34
2023-04-30T06:21:11.097Z,11.40
2023-04-30T06:23:28.440Z,11.47
2023-04-30T06:25:45.454Z,11.60
2023-04-30T06:28:03.416Z,11.76
2023-04-30T06:30:23.571Z,11.90
2023-04-30T06:32:40.566Z,11.98
2023-04-30T06:34:57.928Z,12.15
2023-04-30T06:37:15.552Z,12.23
2023-04-30T06:39:32.881Z,12.30
2023-04-30T06:41:50.131Z,12.32
2023-04-30T06:44:08.501Z,12.40
2023-04-30T06:46:25.835Z,12.46
2023-04-30T06:48:43.134Z,12.54
2023-04-30T06:51:00.168Z,12.64
2023-04-30T06:53:17.571Z,12.74
2023-04-30T06:55:34.544Z,12.83
2023-04-30T06:57:51.893Z,12.91
2023-04-30T07:00:09.208Z,12.93
2023-04-30T07:02:27.527Z,12.96
2023-04-30T07:04:44.874Z,13.03
2023-04-30T07:07:02.117Z,13.15
2023-04-30T07:09:19.372Z,13.21
2023-04-30T07:11:36.290Z,13.36
2023-04-30T07:13:53.644Z,13.46
2023-04-30T07:16:11.066Z,13.57
2023-04-30T07:18:30.796Z,13.53
2023-04-30T07:20:48.105Z,13.63
2023-04-30T07:23:05.383Z,13.73
2023-04-30T07:25:22.596Z,13.94
2023-04-30T07:27:39.896Z,14.08
2023-04-30T07:29:57.341Z,14.10
2023-04-30T07:32:14.627Z,14.18
2023-04-30T07:34:31.923Z,14.40
2023-04-30T07:36:48.995Z,14.44
2023-04-30T07:39:06.290Z,14.52
2023-04-30T07:41:23.369Z,14.62
2023-04-30T07:43:40.603Z,14.66
2023-04-30T07:45:57.927Z,14.64
2023-04-30T07:48:14.978Z,14.51
2023-04-30T07:50:31.890Z,14.68
2023-04-30T07:52:48.794Z,14.74
2023-04-30T07:55:05.735Z,14.89
2023-04-30T07:57:22.609Z,15.01
2023-04-30T07:59:40.156Z,15.15
2023-04-30T08:01:57.503Z,15.12
2023-04-30T08:04:15.545Z,15.22
2023-04-30T08:06:36.416Z,15.31
2023-04-30T08:08:53.578Z,15.33
2023-04-30T08:11:10.593Z,15.38
2023-04-30T08:13:28.942Z,15.31
2023-04-30T08:15:45.883Z,15.40
2023-04-30T08:18:03.320Z,15.59
2023-04-30T08:20:20.743Z,15.63
2023-04-30T08:22:38.164Z,15.61
2023-04-30T08:24:57.627Z,15.57
2023-04-30T08:27:15.181Z,15.63
2023-04-30T08:29:37.582Z,15.70
2023-04-30T08:31:55.598Z,15.72
2023-04-30T08:34:12.920Z,15.79
2023-04-30T08:36:30.250Z,15.93
2023-04-30T08:38:47.620Z,16.02
2023-04-30T08:41:04.963Z,15.99
2023-04-30T08:43:22.667Z,15.61
2023-04-30T08:45:40.066Z,15.52
2023-04-30T08:47:57.152Z,15.54
2023-04-30T08:50:15.314Z,15.66
2023-04-30T08:52:32.638Z,15.63
2023-04-30T08:54:50.993Z,15.83
2023-04-30T08:57:08.318Z,15.84
2023-04-30T08:59:25.347Z,15.91
2023-04-30T09:01:42.303Z,16.07
2023-04-30T09:03:59.792Z,16.08
2023-04-30T09:06:17.431Z,16.19
2023-04-30T09:08:35.744Z,16.10
2023-04-30T09:10:52.752Z,16.10
2023-04-30T09:13:11.344Z,16.04
2023-04-30T09:15:28.513Z,15.92
2023-04-30T09:17:47.084Z,15.77
2023-04-30T09:20:06.772Z,15.58
2023-04-30T09:22:24.096Z,15.59
2023-04-30T09:24:40.996Z,15.76
2023-04-30T09:26:58.426Z,16.02
2023-04-30T09:29:15.718Z,16.15
2023-04-30T09:31:34.086Z,16.07
2023-04-30T09:33:51.429Z,16.07
2023-04-30T09:36:08.723Z,16.15
2023-04-30T09:38:26.046Z,16.07
2023-04-30T09:40:43.440Z,16.14
2023-04-30T09:43:00.416Z,16.25
2023-04-30T09:45:22.022Z,16.40
2023-04-30T09:47:39.012Z,16.64
2023-04-30T09:49:56.403Z,16.92
2023-04-30T09:52:14.183Z,17.04
2023-04-30T09:54:31.657Z,16.83
2023-04-30T09:59:22.212Z,16.85
2023-04-30T10:01:41.939Z,16.86
2023-04-30T10:04:00.859Z,16.84
2023-04-30T10:06:19.406Z,17.11
2023-04-30T10:08:36.839Z,17.39
2023-04-30T10:10:54.075Z,17.53
2023-04-30T10:13:11.315Z,17.63
2023-04-30T10:15:28.401Z,17.76
2023-04-30T10:17:45.309Z,18.03
2023-04-30T10:20:02.617Z,17.92
2023-04-30T10:22:19.779Z,18.03
2023-04-30T10:24:37.044Z,18.00
2023-04-30T10:26:54.367Z,18.10
2023-04-30T10:29:12.003Z,18.18
2023-04-30T10:31:29.325Z,18.10
2023-04-30T10:33:46.256Z,18.32
2023-04-30T10:36:03.526Z,18.57
2023-04-30T10:38:20.774Z,18.51
2023-04-30T10:40:38.028Z,18.52
2023-04-30T10:42:55.950Z,18.74
2023-04-30T10:45:13.213Z,18.71
2023-04-30T10:47:31.154Z,19.01
2023-04-30T10:49:48.542Z,18.82
2023-04-30T10:52:06.919Z,19.03
2023-04-30T10:54:24.319Z,19.25
2023-04-30T10:56:41.650Z,19.25
2023-04-30T10:58:58.576Z,19.20
2023-04-30T11:01:15.908Z,19.43
2023-04-30T11:03:33.266Z,19.50
2023-04-30T11:05:50.581Z,19.40
2023-04-30T11:08:07.874Z,19.64
2023-04-30T11:10:25.208Z,19.90
2023-04-30T11:12:42.566Z,19.91
2023-04-30T11:14:59.995Z,20.08
2023-04-30T11:17:18.222Z,19.88
2023-04-30T11:19:35.450Z,19.91
2023-04-30T11:21:52.819Z,19.79
2023-04-30T11:24:10.120Z,19.76
2023-04-30T11:26:27.377Z,19.75
2023-04-30T11:28:45.709Z,19.52
2023-04-30T11:31:03.670Z,19.52
2023-04-30T11:33:22.016Z,19.46
2023-04-30T11:35:39.337Z,19.59
2023-04-30T11:37:56.692Z,19.73
2023-04-30T11:40:15.244Z,19.66
2023-04-30T11:42:33.043Z,19.70
2023-04-30T11:44:50.335Z,19.84
2023-04-30T11:47:07.600Z,20.05
2023-04-30T11:49:24.976Z,19.78
2023-04-30T11:51:42.199Z,19.81
2023-04-30T11:53:59.430Z,19.88
2023-04-30T11:56:16.688Z,20.07
2023-04-30T11:58:34.377Z,20.11
2023-04-30T12:00:51.634Z,20.33
2023-04-30T12:03:08.978Z,20.71
2023-04-30T12:05:26.318Z,20.55
2023-04-30T12:07:43.631Z,20.66
2023-04-30T12:10:00.953Z,20.49
2023-04-30T12:12:18.778Z,20.46
2023-04-30T12:14:36.485Z,20.36
2023-04-30T12:16:53.633Z,20.62
2023-04-30T12:19:11.883Z,20.73
2023-04-30T12:21:28.814Z,20.58
2023-04-30T12:23:46.487Z,20.51
2023-04-30T12:26:04.785Z,20.40
2023-04-30T12:28:22.427Z,20.38
2023-04-30T12:30:39.713Z,19.94
2023-04-30T12:32:57.075Z,19.71
2023-04-30T12:35:14.140Z,19.36
2023-04-30T12:37:31.471Z,19.38
2023-04-30T12:39:48.410Z,19.49
2023-04-30T12:42:05.689Z,19.46
2023-04-30T12:44:24.003Z,19.35
2023-04-30T12:46:41.059Z,19.38
2023-04-30T12:48:58.520Z,19.55
2023-04-30T12:51:15.787Z,19.53
2023-04-30T12:53:32.740Z,19.71
2023-04-30T12:55:49.648Z,19.72
2023-04-30T12:58:06.965Z,19.95
2023-04-30T13:00:24.626Z,20.22
2023-04-30T13:02:41.906Z,20.48
2023-04-30T13:04:59.362Z,20.51
2023-04-30T13:07:16.629Z,20.59
2023-04-30T13:09:33.920Z,20.47
2023-04-30T13:11:51.179Z,20.52
2023-04-30T13:14:08.047Z,20.64
2023-04-30T13:16:25.864Z,20.68
2023-04-30T13:18:43.583Z,20.95
2023-04-30T13:21:00.909Z,21.08
2023-04-30T13:23:18.828Z,21.25
2023-04-30T13:25:35.761Z,21.03
2023-04-30T13:27:53.027Z,20.77
2023-04-30T13:30:10.356Z,20.75
2023-04-30T13:32:27.766Z,20.68
2023-04-30T13:34:45.055Z,20.62
2023-04-30T13:37:02.289Z,20.60
2023-04-30T13:39:19.661Z,20.28
2023-04-30T13:41:36.956Z,19.87
2023-04-30T13:43:54.145Z,20.13
2023-04-30T13:46:11.396Z,20.56
2023-04-30T13:48:28.338Z,20.75
2023-04-30T13:50:45.649Z,21.10
2023-04-30T13:53:02.935Z,21.29
2023-04-30T13:55:20.198Z,21.17
2023-04-30T13:57:37.559Z,20.66
2023-04-30T13:59:55.004Z,20.38
2023-04-30T14:02:13.114Z,20.33
2023-04-30T14:04:30.385Z,20.24
2023-04-30T14:06:47.828Z,20.58
2023-04-30T14:09:05.152Z,20.68
2023-04-30T14:11:22.458Z,20.98
2023-04-30T14:13:39.346Z,21.21
2023-04-30T14:15:56.705Z,21.15
2023-04-30T14:18:15.152Z,21.24
2023-04-30T14:20:32.189Z,21.13
2023-04-30T14:22:49.472Z,20.88
2023-04-30T14:25:06.396Z,20.43
2023-04-30T14:27:23.477Z,20.01
2023-04-30T14:29:40.767Z,19.71
2023-04-30T14:31:58.159Z,19.76
2023-04-30T14:34:15.951Z,19.94
2023-04-30T14:36:33.291Z,20.01
2023-04-30T14:38:50.580Z,19.97
2023-04-30T14:41:08.520Z,20.11
2023-04-30T14:43:25.465Z,20.38
2023-04-30T14:45:42.410Z,20.62
2023-04-30T14:47:59.718Z,20.71
2023-04-30T14:50:16.955Z,20.91
2023-04-30T14:52:34.047Z,20.91
2023-04-30T14:54:51.415Z,20.87
2023-04-30T14:57:09.695Z,20.75
2023-04-30T14:59:26.985Z,20.30
2023-04-30T15:01:44.379Z,19.96
2023-04-30T15:04:01.502Z,19.67
2023-04-30T15:06:18.468Z,19.46
2023-04-30T15:08:37.961Z,19.30
2023-04-30T15:10:56.299Z,19.36
2023-04-30T15:13:13.211Z,19.55
2023-04-30T15:15:30.311Z,19.69
2023-04-30T15:17:47.292Z,19.57
2023-04-30T15:20:04.741Z,19.81
2023-04-30T15:22:21.949Z,19.69
2023-04-30T15:24:38.882Z,19.69
2023-04-30T15:26:56.194Z,19.69
2023-04-30T15:29:13.506Z,19.86
2023-04-30T15:31:31.847Z,20.00
2023-04-30T15:33:50.201Z,20.13
2023-04-30T15:36:07.114Z,20.40
2023-04-30T15:38:24.446Z,20.46
2023-04-30T15:40:41.717Z,20.62
2023-04-30T15:42:59.415Z,20.56
2023-04-30T15:45:17.342Z,20.25
2023-04-30T15:47:34.659Z,19.97
2023-04-30T15:49:51.724Z,19.78
2023-04-30T15:52:09.050Z,19.59
2023-04-30T15:54:26.325Z,19.43
2023-04-30T15:56:43.989Z,19.31
2023-04-30T15:59:00.884Z,19.29
2023-04-30T16:01:18.170Z,19.37
2023-04-30T16:03:36.155Z,19.33
2023-04-30T16:05:54.248Z,19.46
2023-04-30T16:08:11.487Z,19.46
2023-04-30T16:10:28.765Z,19.46
2023-04-30T16:12:46.148Z,19.49
2023-04-30T16:15:03.059Z,19.48
2023-04-30T16:17:20.382Z,19.53
2023-04-30T16:19:38.056Z,19.46
2023-04-30T16:21:55.001Z,19.43
2023-04-30T16:24:13.231Z,19.51
2023-04-30T16:26:31.183Z,19.50
2023-04-30T16:28:48.493Z,19.54
2023-04-30T16:31:06.478Z,19.55
2023-04-30T16:33:24.212Z,19.52
2023-04-30T16:35:41.533Z,19.49
2023-04-30T16:37:58.451Z,19.29
2023-04-30T16:40:15.379Z,19.13
2023-04-30T16:42:32.707Z,18.98
2023-04-30T16:44:49.996Z,18.88
2023-04-30T16:47:07.241Z,18.76
2023-04-30T16:49:25.118Z,18.62
2023-04-30T16:51:42.348Z,18.49
2023-04-30T16:54:00.670Z,18.44
2023-04-30T16:56:17.884Z,18.44
2023-04-30T16:58:35.158Z,18.37
2023-04-30T17:00:52.425Z,18.29
2023-04-30T17:03:09.847Z,18.28
2023-04-30T17:05:28.183Z,18.24
2023-04-30T17:07:48.784Z,18.21
2023-04-30T17:10:06.205Z,18.15
2023-04-30T17:12:23.073Z,18.13
2023-04-30T17:14:39.964Z,18.11
2023-04-30T17:16:56.946Z,18.12
2023-04-30T17:19:13.856Z,18.15
2023-04-30T17:21:31.504Z,18.12
2023-04-30T17:23:49.753Z,18.09
2023-04-30T17:26:06.986Z,18.08
2023-04-30T17:28:24.236Z,18.04
2023-04-30T17:30:41.538Z,17.88
2023-04-30T17:32:58.507Z,17.81
2023-04-30T17:35:16.878Z,17.76
2023-04-30T17:37:33.754Z,17.71
2023-04-30T17:39:51.402Z,17.64
2023-04-30T17:42:09.082Z,17.53
2023-04-30T17:44:27.279Z,17.44
2023-04-30T17:46:44.997Z,17.35
2023-04-30T17:49:02.100Z,17.24
2023-04-30T17:51:19.396Z,17.13
2023-04-30T17:53:36.628Z,17.10
2023-04-30T17:55:53.916Z,17.01
2023-04-30T17:58:11.154Z,16.94
2023-04-30T18:00:28.080Z,16.84
2023-04-30T18:02:45.428Z,16.74
2023-04-30T18:05:03.744Z,16.66
2023-04-30T18:07:21.466Z,16.53
2023-04-30T18:09:38.723Z,16.38
2023-04-30T18:11:56.379Z,16.28
2023-04-30T18:14:14.568Z,16.19
2023-04-30T18:16:31.503Z,16.07
2023-04-30T18:18:48.760Z,15.95
2023-04-30T18:21:07.056Z,15.87
2023-04-30T18:23:24.393Z,15.75
2023-04-30T18:25:41.341Z,15.67
2023-04-30T18:27:58.672Z,15.59
2023-04-30T18:30:16.403Z,15.52
2023-04-30T18:32:34.428Z,15.41
2023-04-30T18:34:51.481Z,15.30
2023-04-30T18:37:08.761Z,15.20
2023-04-30T18:39:26.022Z,15.14
2023-04-30T18:41:43.388Z,15.07
2023-04-30T18:44:00.618Z,14.98
2023-04-30T18:46:17.947Z,14.90
2023-04-30T18:48:35.341Z,14.76
2023-04-30T18:50:52.281Z,14.65
2023-04-30T18:53:09.572Z,14.55
2023-04-30T18:55:26.822Z,14.51
2023-04-30T18:57:43.736Z,14.50
2023-04-30T19:00:01.101Z,14.41
2023-04-30T19:02:18.461Z,14.30
2023-04-30T19:04:35.808Z,14.21
2023-04-30T19:06:53.183Z,14.10
2023-04-30T19:09:10.530Z,13.99
2023-04-30T19:11:27.737Z,13.93
2023-04-30T19:13:45.032Z,13.85
2023-04-30T19:16:02.333Z,13.79
2023-04-30T19:18:19.590Z,13.72
2023-04-30T19:20:37.516Z,13.65
2023-04-30T19:22:54.879Z,13.60
2023-04-30T19:25:14.880Z,13.52
2023-04-30T19:27:33.174Z,13.45
2023-04-30T19:29:50.474Z,13.39
2023-04-30T19:32:07.843Z,13.33
2023-04-30T19:34:25.126Z,13.23
2023-04-30T19:36:42.848Z,13.18
2023-04-30T19:39:00.081Z,13.12
2023-04-30T19:41:19.722Z,13.06
2023-04-30T19:43:37.060Z,13.00
2023-04-30T19:45:54.449Z,12.95
2023-04-30T19:48:11.523Z,12.89
2023-04-30T19:50:28.473Z,12.86
2023-04-30T19:52:45.827Z,12.80
2023-04-30T19:55:03.149Z,12.69
2023-04-30T19:57:20.437Z,12.61
2023-04-30T19:59:37.770Z,12.55
2023-04-30T20:01:56.475Z,12.48
2023-04-30T20:04:13.498Z,12.41
2023-04-30T20:06:30.894Z,12.36
2023-04-30T20:08:48.197Z,12.31
2023-04-30T20:11:05.518Z,12.28
2023-04-30T20:13:22.909Z,12.17
2023-04-30T20:15:40.292Z,12.08
2023-04-30T20:17:57.725Z,12.03
2023-04-30T20:20:14.964Z,11.95
2023-04-30T20:22:31.916Z,11.90
2023-04-30T20:24:48.829Z,11.85
2023-04-30T20:27:06.158Z,11.80
2023-04-30T20:29:23.457Z,11.74
2023-04-30T20:31:41.912Z,11.66
2023-04-30T20:34:00.258Z,11.57
2023-04-30T20:36:17.545Z,11.56
2023-04-30T20:38:35.857Z,11.51
2023-04-30T20:40:53.212Z,11.46
2023-04-30T20:43:10.439Z,11.42
2023-04-30T20:45:27.931Z,11.33
2023-04-30T20:47:45.324Z,11.28
2023-04-30T20:50:02.279Z,11.27
2023-04-30T20:52:19.597Z,11.26
2023-04-30T20:54:36.921Z,11.25
2023-04-30T20:56:53.845Z,11.21
2023-04-30T20:59:11.752Z,11.16
2023-04-30T21:01:29.054Z,11.12
2023-04-30T21:03:46.465Z,11.08
2023-04-30T21:06:04.471Z,11.01
2023-04-30T21:08:21.853Z,10.97
2023-04-30T21:10:39.574Z,10.93
2023-04-30T21:12:56.878Z,10.87
2023-04-30T21:15:13.894Z,10.80
2023-04-30T21:17:30.879Z,10.79
2023-04-30T21:19:48.230Z,10.79
2023-04-30T21:22:05.271Z,10.76
2023-04-30T21:24:22.517Z,10.68
2023-04-30T21:26:39.776Z,10.64
2023-04-30T21:28:56.938Z,10.62
2023-04-30T21:31:14.210Z,10.57
2023-04-30T21:33:31.257Z,10.54
2023-04-30T21:35:50.940Z,10.50
2023-04-30T21:38:08.222Z,10.45
2023-04-30T21:40:25.256Z,10.42
2023-04-30T21:42:42.507Z,10.36
2023-04-30T21:44:59.779Z,10.33
2023-04-30T21:47:18.097Z,10.28
2023-04-30T21:49:35.463Z,10.28
2023-04-30T21:51:52.723Z,10.26
2023-04-30T21:54:09.970Z,10.22
2023-04-30T21:56:27.252Z,10.21
2023-04-30T21:58:44.477Z,10.21
2023-04-30T22:01:02.749Z,10.19
2023-04-30T22:03:20.187Z,10.17
2023-04-30T22:05:37.311Z,10.20
2023-04-30T22:07:54.613Z,10.22
2023-04-30T22:10:12.227Z,10.24
2023-04-30T22:12:29.522Z,10.22
2023-04-30T22:14:46.819Z,10.18
2023-04-30T22:17:04.058Z,10.18
2023-04-30T22:19:22.614Z,10.15
2023-04-30T22:21:39.980Z,10.14
2023-04-30T22:23:57.307Z,10.14
2023-04-30T22:26:14.604Z,10.14
2023-04-30T22:28:31.547Z,10.13
2023-04-30T22:30:48.780Z,10.11
2023-04-30T22:33:06.074Z,10.07
2023-04-30T22:35:23.042Z,10.02
2023-04-30T22:37:40.692Z,9.99
2023-04-30T22:39:58.393Z,10.00
2023-04-30T22:42:16.136Z,10.01
2023-04-30T22:44:33.424Z,10.00
2023-04-30T22:46:50.783Z,10.00
2023-04-30T22:51:26.206Z,10.06
2023-04-30T22:53:43.494Z,10.07
2023-04-30T22:56:00.696Z,10.04
2023-04-30T22:58:18.588Z,10.00
2023-04-30T23:00:35.540Z,9.99
2023-04-30T23:02:52.818Z,9.99
2023-04-30T23:05:09.796Z,9.96
2023-04-30T23:07:28.082Z,9.95
2023-04-30T23:09:45.160Z,9.91
2023-04-30T23:12:02.452Z,9.86
2023-04-30T23:14:19.821Z,9.86
2023-04-30T23:16:37.204Z,9.84
2023-04-30T23:18:54.469Z,9.84
2023-04-30T23:21:11.697Z,9.83
2023-04-30T23:23:29.480Z,9.77
2023-04-30T23:25:46.424Z,9.76
2023-04-30T23:28:03.686Z,9.74
2023-04-30T23:30:20.915Z,9.69
2023-04-30T23:32:38.285Z,9.67
2023-04-30T23:34:57.830Z,9.64
2023-04-30T23:37:15.116Z,9.59
2023-04-30T23:39:32.431Z,9.54
2023-04-30T23:41:49.721Z,9.52
2023-04-30T23:44:06.834Z,9.48
2023-04-30T23:46:24.516Z,9.44
2023-04-30T23:48:41.479Z,9.40
2023-04-30T23:50:58.788Z,9.37
2023-04-30T23:53:16.208Z,9.32
2023-04-30T23:55:33.647Z,9.27
2023-04-30T23:57:50.886Z,9.20
